KAST/AST METAR and TAF weather

Enter ICAO airport designator
Station Type Date Time Source
KAST METAR 2020/11/27 13:55 UTC NOAA

KAST 271355Z AUTO 11005KT 10SM OVC046 07/05 A3031 RMK AO2 SLP263 T00670050


Station Type Date Time Source
KAST Decoded METAR 2020/11/27 13:55 UTC NOAA

PORT OF ASTORIA AIRPORT, OR, United States (KAST) 46-09N 123-53W 3M
Nov 27, 2020 - 08:55 AM EST / 2020.11.27 1355 UTC
Wind: from the ESE (110 degrees) at 6 MPH (5 KT):0
Visibility: 10 mile(s):0
Sky conditions: overcast
Temperature: 44.1 F (6.7 C)
Dew Point: 41.0 F (5.0 C)
Relative Humidity: 88%
Pressure (altimeter): 30.31 in. Hg (1026 hPa)
ob: KAST 271355Z AUTO 11005KT 10SM OVC046 07/05 A3031 RMK AO2 SLP263 T00670050
cycle: 14

Station Type Date Time Source
KAST TAF 2020/11/27 12:22 UTC NOAA

TAF KAST 271120Z 2712/2812 14003KT P6SM OVC050
FM272100 20006KT P6SM BKN250
FM280300 18008KT P6SM -RA BKN025 OVC050
FM280800 19009KT P6SM -RA OVC029
FM281100 23006KT P6SM -RA OVC015

Example: see airport list